createdAt,value
2023-02-27T08:41:39.671Z,46.44
2023-02-27T08:44:07.521Z,46.80
2023-02-27T08:46:34.893Z,46.28
2023-02-27T08:49:02.244Z,46.13
2023-02-27T08:51:30.004Z,45.86
2023-02-27T08:53:59.113Z,46.13
2023-02-27T08:56:28.363Z,45.73
2023-02-27T08:58:56.412Z,45.73
2023-02-27T09:01:26.160Z,46.18
2023-02-27T09:03:53.807Z,45.40
2023-02-27T09:06:21.128Z,45.56
2023-02-27T09:08:48.429Z,45.31
2023-02-27T09:11:15.764Z,45.41
2023-02-27T09:13:43.031Z,45.45
2023-02-27T09:16:10.414Z,45.51
2023-02-27T09:18:37.751Z,45.60
2023-02-27T09:21:05.229Z,45.14
2023-02-27T09:23:32.583Z,45.63
2023-02-27T09:25:59.875Z,45.49
2023-02-27T09:28:27.370Z,44.91
2023-02-27T09:30:54.714Z,44.92
2023-02-27T09:33:22.011Z,45.18
2023-02-27T09:35:49.385Z,45.25
2023-02-27T09:38:16.740Z,45.08
2023-02-27T09:40:50.293Z,44.22
2023-02-27T09:43:50.691Z,44.32
2023-02-27T09:46:23.358Z,44.25
2023-02-27T09:49:01.940Z,44.16
2023-02-27T09:51:29.847Z,44.27
2023-02-27T09:54:01.715Z,44.32
2023-02-27T09:56:46.480Z,44.07
2023-02-27T10:00:24.416Z,44.14
2023-02-27T10:03:19.801Z,43.87
2023-02-27T10:06:33.889Z,43.90
2023-02-27T10:09:34.814Z,43.75
2023-02-27T10:12:45.812Z,43.84
2023-02-27T10:15:38.944Z,43.84
2023-02-27T10:18:31.277Z,43.65
2023-02-27T10:21:10.711Z,43.80
2023-02-27T10:24:18.123Z,43.92
2023-02-27T10:26:46.225Z,44.22
2023-02-27T10:29:41.632Z,44.15
2023-02-27T10:32:35.674Z,44.25
2023-02-27T10:35:34.837Z,44.59
2023-02-27T10:38:48.084Z,44.37
2023-02-27T10:41:19.136Z,44.31
2023-02-27T10:43:46.859Z,43.86
2023-02-27T10:46:31.039Z,44.25
2023-02-27T10:49:05.524Z,44.64
2023-02-27T10:51:38.335Z,44.42
2023-02-27T10:54:23.653Z,44.29
2023-02-27T10:57:01.092Z,44.35
2023-02-27T10:59:38.001Z,44.73
2023-02-27T11:02:43.651Z,44.86
2023-02-27T11:05:36.982Z,44.88
2023-02-27T11:08:32.172Z,44.87
2023-02-27T11:11:11.440Z,45.09
2023-02-27T11:13:44.951Z,45.14
2023-02-27T11:16:23.637Z,45.20
2023-02-27T11:18:54.359Z,44.91
2023-02-27T11:21:30.125Z,45.17
2023-02-27T11:24:07.741Z,45.32
2023-02-27T11:26:41.200Z,45.08
2023-02-27T11:29:18.964Z,45.65
2023-02-27T11:31:57.256Z,44.99
2023-02-27T11:34:38.354Z,45.08
2023-02-27T11:37:36.363Z,44.89
2023-02-27T11:40:09.909Z,45.29
2023-02-27T11:42:51.634Z,45.40
2023-02-27T11:46:05.090Z,45.35
2023-02-27T11:48:39.833Z,45.06
2023-02-27T11:51:52.105Z,45.22
2023-02-27T11:54:54.463Z,44.88
2023-02-27T11:57:38.178Z,45.19
2023-02-27T12:00:15.995Z,45.21
2023-02-27T12:03:32.619Z,45.29
2023-02-27T12:06:20.543Z,45.31
2023-02-27T12:09:07.574Z,45.25
2023-02-27T12:11:45.930Z,44.92
2023-02-27T12:14:50.916Z,44.94
2023-02-27T12:17:40.726Z,45.18
2023-02-27T12:20:42.601Z,45.31
2023-02-27T12:24:06.907Z,45.05
2023-02-27T12:26:46.739Z,45.03
2023-02-27T12:29:39.868Z,45.43
2023-02-27T12:33:20.141Z,45.13
2023-02-27T12:36:03.922Z,45.28
2023-02-27T12:38:32.698Z,45.49
2023-02-27T12:41:36.987Z,45.21
2023-02-27T12:44:44.949Z,45.66
2023-02-27T12:47:54.644Z,46.14
2023-02-27T12:50:25.923Z,45.70
2023-02-27T12:53:34.247Z,45.24
2023-02-27T12:56:24.535Z,45.08
2023-02-27T12:59:41.959Z,45.12
2023-02-27T13:02:50.227Z,45.29
2023-02-27T13:06:01.669Z,45.48
2023-02-27T13:08:57.639Z,45.14
2023-02-27T13:12:04.692Z,45.03
2023-02-27T13:15:24.397Z,45.76
2023-02-27T13:18:36.625Z,45.63
2023-02-27T13:21:48.180Z,45.29
2023-02-27T13:24:29.761Z,45.26
2023-02-27T13:27:35.934Z,45.09
2023-02-27T13:30:28.125Z,44.89
2023-02-27T13:33:35.157Z,44.35
2023-02-27T13:36:39.791Z,44.32
2023-02-27T13:39:56.691Z,43.96
2023-02-27T13:42:26.946Z,43.54
2023-02-27T13:45:05.691Z,43.70
2023-02-27T13:47:50.102Z,43.22
2023-02-27T13:50:23.123Z,44.04
2023-02-27T13:52:50.843Z,43.51
2023-02-27T13:55:31.223Z,43.00
2023-02-27T13:58:02.076Z,43.91
2023-02-27T14:00:35.554Z,44.45
2023-02-27T14:03:25.682Z,44.45
2023-02-27T14:06:00.904Z,44.41
2023-02-27T14:08:46.491Z,44.51
2023-02-27T14:11:28.718Z,43.00
2023-02-27T14:13:57.624Z,43.03
2023-02-27T14:16:40.062Z,43.46
2023-02-27T14:19:16.094Z,43.07
2023-02-27T14:22:24.589Z,42.10
2023-02-27T14:25:22.034Z,42.13
2023-02-27T14:27:57.401Z,42.39
2023-02-27T14:30:45.778Z,42.04
2023-02-27T14:33:46.405Z,41.78
2023-02-27T14:36:30.810Z,41.96
2023-02-27T14:39:02.212Z,42.13
2023-02-27T14:41:56.778Z,41.92
2023-02-27T14:44:38.028Z,42.15
2023-02-27T14:47:06.955Z,42.23
2023-02-27T14:49:36.131Z,41.81
2023-02-27T14:52:31.714Z,41.66
2023-02-27T14:55:31.388Z,41.59
2023-02-27T14:58:07.484Z,42.01
2023-02-27T15:00:50.527Z,41.83
2023-02-27T15:03:39.887Z,41.76
2023-02-27T15:06:46.266Z,41.78
2023-02-27T15:09:24.831Z,41.93
2023-02-27T15:12:03.850Z,42.16
2023-02-27T15:14:40.036Z,41.77
2023-02-27T15:17:26.284Z,41.52
2023-02-27T15:20:04.047Z,41.42
2023-02-27T15:22:39.934Z,41.65
2023-02-27T15:25:38.891Z,41.58
2023-02-27T15:28:27.665Z,41.74
2023-02-27T15:30:56.734Z,41.72
2023-02-27T15:33:33.372Z,42.26
2023-02-27T15:36:01.616Z,42.28
2023-02-27T15:38:38.009Z,42.39
2023-02-27T15:41:05.589Z,42.90
2023-02-27T15:43:33.270Z,42.83
2023-02-27T15:46:01.007Z,42.58
2023-02-27T15:48:29.904Z,42.62
2023-02-27T15:51:04.397Z,42.71
2023-02-27T15:53:34.005Z,42.87
2023-02-27T15:56:12.094Z,42.70
2023-02-27T15:58:53.866Z,41.97
2023-02-27T16:01:30.828Z,42.27
2023-02-27T16:04:20.675Z,42.36
2023-02-27T16:07:06.113Z,42.30
2023-02-27T16:09:38.431Z,42.14
2023-02-27T16:12:33.399Z,42.09
2023-02-27T16:15:38.310Z,42.24
2023-02-27T16:18:08.598Z,42.55
2023-02-27T16:20:55.661Z,42.48
2023-02-27T16:23:32.003Z,42.93
2023-02-27T16:26:27.473Z,44.29
2023-02-27T16:29:03.912Z,44.60
2023-02-27T16:31:45.880Z,45.41
2023-02-27T16:34:45.390Z,45.22
2023-02-27T16:37:37.004Z,45.23
2023-02-27T16:40:23.374Z,45.33
2023-02-27T16:42:52.816Z,45.06
2023-02-27T16:45:31.221Z,45.64
2023-02-27T16:48:01.129Z,45.30
2023-02-27T16:50:42.999Z,45.53
2023-02-27T16:53:10.383Z,45.97
2023-02-27T16:55:43.411Z,45.70
2023-02-27T16:58:16.414Z,46.15
2023-02-27T17:00:44.482Z,45.99
2023-02-27T17:03:11.790Z,46.04
2023-02-27T17:05:39.591Z,46.24
2023-02-27T17:08:07.183Z,46.35
2023-02-27T17:10:34.618Z,46.20
2023-02-27T17:13:01.895Z,46.81
2023-02-27T17:15:29.193Z,46.52
2023-02-27T17:17:56.509Z,46.51
2023-02-27T17:20:26.050Z,46.57
2023-02-27T17:22:53.397Z,46.50
2023-02-27T17:25:20.742Z,46.73
2023-02-27T17:27:48.254Z,46.80
2023-02-27T17:30:16.578Z,46.79
2023-02-27T17:32:44.026Z,47.02
2023-02-27T17:35:11.576Z,46.66
2023-02-27T17:37:38.959Z,46.23
2023-02-27T17:40:08.261Z,46.14
2023-02-27T17:42:39.918Z,46.02
2023-02-27T17:45:09.355Z,46.12
2023-02-27T17:47:37.507Z,45.67
2023-02-27T17:50:06.048Z,45.98
2023-02-27T17:52:37.452Z,45.54
2023-02-27T17:55:08.608Z,45.68
2023-02-27T17:57:39.067Z,45.50
2023-02-27T18:00:14.331Z,45.62
2023-02-27T18:02:45.350Z,45.67
2023-02-27T18:05:12.813Z,45.62
2023-02-27T18:07:40.525Z,45.54
2023-02-27T18:10:10.165Z,45.52
2023-02-27T18:12:38.474Z,45.55
2023-02-27T18:15:06.911Z,45.69
2023-02-27T18:17:34.396Z,45.73
2023-02-27T18:20:01.829Z,45.45
2023-02-27T18:22:30.009Z,45.73
2023-02-27T18:24:58.704Z,46.09
2023-02-27T18:27:28.000Z,46.36
2023-02-27T18:29:57.590Z,46.28
2023-02-27T18:32:25.288Z,46.34
2023-02-27T18:34:53.524Z,46.09
2023-02-27T18:37:20.866Z,45.64
2023-02-27T18:39:48.190Z,45.52
2023-02-27T18:42:15.505Z,45.62
2023-02-27T18:44:42.863Z,45.66
2023-02-27T18:47:12.059Z,45.54
2023-02-27T18:49:39.493Z,45.27
2023-02-27T18:52:09.193Z,44.97
2023-02-27T18:54:37.741Z,45.34
2023-02-27T18:57:06.050Z,45.29
2023-02-27T18:59:33.480Z,44.95
2023-02-27T19:02:01.269Z,45.34
2023-02-27T19:04:33.599Z,44.86
2023-02-27T19:07:00.923Z,44.99
2023-02-27T19:09:32.733Z,44.90
2023-02-27T19:12:00.855Z,44.56
2023-02-27T19:14:28.224Z,44.57
2023-02-27T19:16:56.892Z,43.58
2023-02-27T19:19:28.126Z,43.96
2023-02-27T19:21:56.199Z,43.51
2023-02-27T19:24:24.608Z,42.19
2023-02-27T19:26:53.507Z,42.47
2023-02-27T19:29:21.375Z,42.28
2023-02-27T19:31:48.758Z,42.13
2023-02-27T19:34:16.433Z,42.43
2023-02-27T19:36:43.750Z,42.51
2023-02-27T19:39:11.778Z,42.07
2023-02-27T19:41:39.150Z,42.14
2023-02-27T19:44:07.678Z,42.03
2023-02-27T19:46:35.663Z,42.47
2023-02-27T19:49:06.038Z,41.90
2023-02-27T19:51:33.849Z,42.28
2023-02-27T19:54:01.234Z,42.18
2023-02-27T19:56:29.858Z,42.39
2023-02-27T19:58:57.835Z,42.17
2023-02-27T20:01:36.243Z,42.54
2023-02-27T20:04:04.382Z,42.65
2023-02-27T20:06:42.294Z,42.55
2023-02-27T20:09:14.504Z,42.94
2023-02-27T20:11:45.048Z,43.67
2023-02-27T20:14:14.883Z,43.63
2023-02-27T20:16:42.926Z,43.74
2023-02-27T20:19:17.941Z,43.93
2023-02-27T20:21:47.235Z,43.83
2023-02-27T20:24:15.382Z,43.42
2023-02-27T20:26:48.312Z,43.67
2023-02-27T20:29:22.902Z,43.85
2023-02-27T20:31:53.429Z,43.69
2023-02-27T20:34:26.270Z,44.26
2023-02-27T20:36:57.148Z,44.98
2023-02-27T20:39:25.388Z,45.09
2023-02-27T20:41:52.825Z,45.62
